Terminal Aerodrome Forecast
Issued by NWS

Home | Current Version | Previous Version | Text Only | Print | Product List | Glossary On
Versions: 1 2 3 4 5 6 7 8 9 10 11 12 13 14 15 16 17 18 19 20 21 22 23 24
000
FTUS43 KMKX 241740
TAFENW
TAF
KENW 241740Z 2418/2518 13015G25KT P6SM BKN090 BKN150
     FM250000 13014G24KT 6SM -SHRA OVC060 WS020/15040KT
     FM250300 13010KT 5SM -RA SCT030 OVC050 WS020/16040KT
     FM250600 13006KT 4SM -RA BR OVC025
     FM251000 VRB05KT P6SM SCT020 BKN100
     FM251200 33006KT P6SM SKC
     FM251700 28014G24KT P6SM SKC=

USA.gov is the U.S. government's official web portal to all federal, state and local government web resources and services.